createdAt,value
2018-06-03T00:04:51.297Z,1014.6
2018-06-03T00:15:05.674Z,1014.6
2018-06-03T00:25:18.158Z,1014.7
2018-06-03T00:35:32.070Z,1014.6
2018-06-03T00:45:44.494Z,1014.7
2018-06-03T00:55:58.666Z,1014.7
2018-06-03T01:06:13.640Z,1014.7
2018-06-03T01:16:27.700Z,1014.7
2018-06-03T01:27:12.925Z,1014.6
2018-06-03T01:37:57.799Z,1014.6
2018-06-03T01:48:11.737Z,1014.6
2018-06-03T01:58:26.359Z,1014.5
2018-06-03T02:09:11.978Z,1014.4
2018-06-03T02:19:57.100Z,1014.3
2018-06-03T02:30:10.884Z,1014.3
2018-06-03T02:40:24.455Z,1014.2
2018-06-03T02:50:38.605Z,1014.2
2018-06-03T03:01:24.165Z,1014.3
2018-06-03T03:11:38.378Z,1014.3
2018-06-03T03:21:53.115Z,1014.2
2018-06-03T03:32:23.292Z,1014.2
2018-06-03T03:43:07.660Z,1014.3
2018-06-03T03:53:53.665Z,1014.3
2018-06-03T04:04:39.171Z,1014.3
2018-06-03T04:14:53.524Z,1014.4
2018-06-03T04:25:05.932Z,1014.3
2018-06-03T04:35:17.957Z,1014.3
2018-06-03T04:46:05.835Z,1014.5
2018-06-03T04:56:19.823Z,1014.4
2018-06-03T05:06:34.328Z,1014.5
2018-06-03T05:17:20.043Z,1014.6
2018-06-03T05:28:04.982Z,1014.6
2018-06-03T05:38:19.087Z,1014.8
2018-06-03T05:48:40.302Z,1014.6
2018-06-03T05:59:01.377Z,1014.8
2018-06-03T06:09:25.477Z,1014.9
2018-06-03T06:19:40.064Z,1014.9
2018-06-03T06:29:55.524Z,1015.0
2018-06-03T06:40:10.911Z,1015.0
2018-06-03T06:51:11.301Z,1015.1
2018-06-03T07:01:45.435Z,1015.2
2018-06-03T07:12:52.668Z,1015.2
2018-06-03T07:23:09.093Z,1015.2
2018-06-03T07:33:33.991Z,1015.2
2018-06-03T07:43:50.232Z,1015.2
2018-06-03T07:54:05.669Z,1015.1
2018-06-03T08:04:19.671Z,1015.2
2018-06-03T08:14:45.199Z,1015.2
2018-06-03T08:25:11.295Z,1015.3
2018-06-03T08:35:26.714Z,1015.2
2018-06-03T08:45:41.922Z,1015.2
2018-06-03T08:55:56.203Z,1015.2
2018-06-03T09:06:12.239Z,1015.4
2018-06-03T09:17:00.089Z,1015.1
2018-06-03T09:27:23.328Z,1015.0
2018-06-03T09:37:39.080Z,1015.0
2018-06-03T09:48:32.306Z,1015.0
2018-06-03T09:59:14.692Z,1015.1
2018-06-03T10:09:45.674Z,1015.0
2018-06-03T10:20:00.638Z,1014.9
2018-06-03T10:30:18.405Z,1014.8
2018-06-03T10:40:34.230Z,1014.9
2018-06-03T10:50:48.721Z,1014.9
2018-06-03T11:01:33.758Z,1014.9
2018-06-03T11:11:46.738Z,1015.0
2018-06-03T11:22:02.431Z,1014.8
2018-06-03T11:32:19.410Z,1014.7
2018-06-03T11:42:35.461Z,1014.8
2018-06-03T11:53:02.018Z,1014.7
2018-06-03T12:16:48.513Z,1014.8
2018-06-03T12:27:06.125Z,1014.7
2018-06-03T12:37:20.081Z,1014.6
2018-06-03T12:47:35.211Z,1014.5
2018-06-03T12:57:49.129Z,1014.4
2018-06-03T13:08:04.030Z,1014.5
2018-06-03T13:18:18.588Z,1014.3
2018-06-03T13:28:33.480Z,1014.3
2018-06-03T13:38:49.172Z,1014.2
2018-06-03T13:49:03.487Z,1013.9
2018-06-03T13:59:49.703Z,1013.9
2018-06-03T14:10:33.964Z,1013.8
2018-06-03T14:20:48.398Z,1013.7
2018-06-03T14:31:02.732Z,1013.8
2018-06-03T14:41:16.580Z,1013.6
2018-06-03T14:51:30.834Z,1013.5
2018-06-03T15:25:04.628Z,1013.2
2018-06-03T15:35:19.027Z,1013.0
2018-06-03T15:45:40.533Z,1013.0
2018-06-03T15:55:55.161Z,1012.8
2018-06-03T16:49:32.730Z,1012.2
2018-06-03T17:01:27.363Z,1012.1
2018-06-03T17:11:42.010Z,1012.1
2018-06-03T17:21:57.267Z,1012.0
2018-06-03T17:32:11.589Z,1011.9
2018-06-03T17:43:46.756Z,1011.8
2018-06-03T17:55:28.359Z,1011.7
2018-06-03T18:24:36.955Z,1011.6
2018-06-03T18:59:25.135Z,1011.6
2018-06-03T20:58:45.258Z,1012.0
2018-06-03T21:29:22.404Z,1012.1
2018-06-03T21:40:29.294Z,1012.0
2018-06-03T22:03:35.871Z,1012.0
2018-06-03T22:14:21.697Z,1012.1
2018-06-03T22:37:18.819Z,1012.0
2018-06-03T22:48:39.416Z,1012.0
2018-06-03T22:58:53.788Z,1011.9
2018-06-03T23:25:07.032Z,1011.8
2018-06-03T23:52:13.732Z,1011.6
